sensor_id;sensor_type;location;lat;lon;timestamp;P1;durP1;ratioP1;P2;durP2;ratioP2
17854;SDS011;9053;53.358;6.382;2023-03-17T00:00:52;6.63;;;4.30;;
17854;SDS011;9053;53.358;6.382;2023-03-17T00:03:23;6.70;;;4.37;;
17854;SDS011;9053;53.358;6.382;2023-03-17T00:05:55;4.87;;;3.77;;
17854;SDS011;9053;53.358;6.382;2023-03-17T00:08:27;4.53;;;4.00;;
17854;SDS011;9053;53.358;6.382;2023-03-17T00:11:00;5.07;;;3.67;;
17854;SDS011;9053;53.358;6.382;2023-03-17T00:13:30;6.30;;;3.97;;
17854;SDS011;9053;53.358;6.382;2023-03-17T00:16:03;4.17;;;3.60;;
17854;SDS011;9053;53.358;6.382;2023-03-17T00:18:38;4.73;;;4.03;;
17854;SDS011;9053;53.358;6.382;2023-03-17T00:21:09;4.43;;;3.90;;
17854;SDS011;9053;53.358;6.382;2023-03-17T00:23:40;5.70;;;4.10;;
17854;SDS011;9053;53.358;6.382;2023-03-17T00:26:12;5.23;;;4.07;;
17854;SDS011;9053;53.358;6.382;2023-03-17T00:28:43;7.63;;;4.10;;
17854;SDS011;9053;53.358;6.382;2023-03-17T00:31:16;6.20;;;4.20;;
17854;SDS011;9053;53.358;6.382;2023-03-17T00:33:49;4.77;;;4.00;;
17854;SDS011;9053;53.358;6.382;2023-03-17T00:36:21;5.37;;;4.00;;
17854;SDS011;9053;53.358;6.382;2023-03-17T00:38:53;5.70;;;4.10;;
17854;SDS011;9053;53.358;6.382;2023-03-17T00:41:24;4.73;;;3.60;;
17854;SDS011;9053;53.358;6.382;2023-03-17T00:43:55;5.50;;;4.27;;
17854;SDS011;9053;53.358;6.382;2023-03-17T00:46:28;5.57;;;4.53;;
17854;SDS011;9053;53.358;6.382;2023-03-17T00:49:01;4.33;;;3.87;;
17854;SDS011;9053;53.358;6.382;2023-03-17T00:51:32;4.43;;;3.73;;
17854;SDS011;9053;53.358;6.382;2023-03-17T00:54:01;4.63;;;3.63;;
17854;SDS011;9053;53.358;6.382;2023-03-17T00:56:32;4.27;;;3.70;;
17854;SDS011;9053;53.358;6.382;2023-03-17T00:59:02;3.70;;;3.37;;
17854;SDS011;9053;53.358;6.382;2023-03-17T01:01:34;4.90;;;3.40;;
17854;SDS011;9053;53.358;6.382;2023-03-17T01:04:04;4.40;;;3.57;;
17854;SDS011;9053;53.358;6.382;2023-03-17T01:06:34;4.30;;;3.90;;
17854;SDS011;9053;53.358;6.382;2023-03-17T01:09:05;3.97;;;3.27;;
17854;SDS011;9053;53.358;6.382;2023-03-17T01:11:38;5.03;;;3.70;;
17854;SDS011;9053;53.358;6.382;2023-03-17T01:14:08;4.83;;;4.00;;
17854;SDS011;9053;53.358;6.382;2023-03-17T01:16:40;4.33;;;3.40;;
17854;SDS011;9053;53.358;6.382;2023-03-17T01:19:11;4.13;;;3.57;;
17854;SDS011;9053;53.358;6.382;2023-03-17T01:21:42;5.63;;;3.97;;
17854;SDS011;9053;53.358;6.382;2023-03-17T01:24:13;5.70;;;3.77;;
17854;SDS011;9053;53.358;6.382;2023-03-17T01:26:43;4.70;;;3.53;;
17854;SDS011;9053;53.358;6.382;2023-03-17T01:29:13;7.23;;;4.27;;
17854;SDS011;9053;53.358;6.382;2023-03-17T01:31:46;5.20;;;3.67;;
17854;SDS011;9053;53.358;6.382;2023-03-17T01:34:16;4.13;;;3.73;;
17854;SDS011;9053;53.358;6.382;2023-03-17T01:36:45;4.77;;;3.23;;
17854;SDS011;9053;53.358;6.382;2023-03-17T01:39:15;5.20;;;3.80;;
17854;SDS011;9053;53.358;6.382;2023-03-17T01:41:45;4.13;;;3.70;;
17854;SDS011;9053;53.358;6.382;2023-03-17T01:44:16;4.70;;;3.77;;
17854;SDS011;9053;53.358;6.382;2023-03-17T01:46:51;4.70;;;3.40;;
17854;SDS011;9053;53.358;6.382;2023-03-17T01:49:23;5.37;;;4.10;;
17854;SDS011;9053;53.358;6.382;2023-03-17T01:51:57;5.00;;;3.63;;
17854;SDS011;9053;53.358;6.382;2023-03-17T01:54:35;4.67;;;3.63;;
17854;SDS011;9053;53.358;6.382;2023-03-17T01:57:17;3.80;;;3.30;;
17854;SDS011;9053;53.358;6.382;2023-03-17T01:59:49;4.00;;;3.37;;
17854;SDS011;9053;53.358;6.382;2023-03-17T02:02:24;4.53;;;3.70;;
17854;SDS011;9053;53.358;6.382;2023-03-17T02:04:59;3.87;;;3.40;;
17854;SDS011;9053;53.358;6.382;2023-03-17T02:07:29;4.20;;;3.23;;
17854;SDS011;9053;53.358;6.382;2023-03-17T02:09:59;5.53;;;3.37;;
17854;SDS011;9053;53.358;6.382;2023-03-17T02:12:31;5.33;;;3.90;;
17854;SDS011;9053;53.358;6.382;2023-03-17T02:15:03;3.87;;;3.13;;
17854;SDS011;9053;53.358;6.382;2023-03-17T02:17:36;5.23;;;3.43;;
17854;SDS011;9053;53.358;6.382;2023-03-17T02:20:10;3.73;;;3.27;;
17854;SDS011;9053;53.358;6.382;2023-03-17T02:22:46;4.60;;;3.50;;
17854;SDS011;9053;53.358;6.382;2023-03-17T02:25:18;4.17;;;3.50;;
17854;SDS011;9053;53.358;6.382;2023-03-17T02:27:49;4.07;;;3.43;;
17854;SDS011;9053;53.358;6.382;2023-03-17T02:30:22;4.87;;;3.57;;
17854;SDS011;9053;53.358;6.382;2023-03-17T02:32:53;4.97;;;3.50;;
17854;SDS011;9053;53.358;6.382;2023-03-17T02:35:22;4.60;;;3.53;;
17854;SDS011;9053;53.358;6.382;2023-03-17T02:37:55;4.10;;;3.70;;
17854;SDS011;9053;53.358;6.382;2023-03-17T02:40:25;4.93;;;3.63;;
17854;SDS011;9053;53.358;6.382;2023-03-17T02:42:55;5.37;;;3.50;;
17854;SDS011;9053;53.358;6.382;2023-03-17T02:45:27;3.93;;;3.17;;
17854;SDS011;9053;53.358;6.382;2023-03-17T02:47:59;4.57;;;3.80;;
17854;SDS011;9053;53.358;6.382;2023-03-17T02:57:59;5.47;;;3.63;;
17854;SDS011;9053;53.358;6.382;2023-03-17T03:00:30;5.10;;;3.90;;
17854;SDS011;9053;53.358;6.382;2023-03-17T03:03:00;5.17;;;4.00;;
17854;SDS011;9053;53.358;6.382;2023-03-17T03:05:30;3.77;;;3.37;;
17854;SDS011;9053;53.358;6.382;2023-03-17T03:08:00;5.53;;;4.20;;
17854;SDS011;9053;53.358;6.382;2023-03-17T03:10:30;4.70;;;3.77;;
17854;SDS011;9053;53.358;6.382;2023-03-17T03:13:03;3.77;;;3.27;;
17854;SDS011;9053;53.358;6.382;2023-03-17T03:15:33;4.47;;;3.40;;
17854;SDS011;9053;53.358;6.382;2023-03-17T03:18:03;5.60;;;3.70;;
17854;SDS011;9053;53.358;6.382;2023-03-17T03:20:33;5.50;;;3.93;;
17854;SDS011;9053;53.358;6.382;2023-03-17T03:23:03;4.07;;;3.60;;
17854;SDS011;9053;53.358;6.382;2023-03-17T03:25:34;3.77;;;3.20;;
17854;SDS011;9053;53.358;6.382;2023-03-17T03:28:08;4.23;;;3.57;;
17854;SDS011;9053;53.358;6.382;2023-03-17T03:30:38;4.47;;;3.63;;
17854;SDS011;9053;53.358;6.382;2023-03-17T03:33:10;4.93;;;3.83;;
17854;SDS011;9053;53.358;6.382;2023-03-17T03:35:41;4.20;;;3.60;;
17854;SDS011;9053;53.358;6.382;2023-03-17T03:38:12;5.07;;;4.00;;
17854;SDS011;9053;53.358;6.382;2023-03-17T03:40:43;4.67;;;3.70;;
17854;SDS011;9053;53.358;6.382;2023-03-17T03:43:15;4.87;;;3.67;;
17854;SDS011;9053;53.358;6.382;2023-03-17T03:45:49;5.40;;;3.90;;
17854;SDS011;9053;53.358;6.382;2023-03-17T03:48:20;4.47;;;3.80;;
17854;SDS011;9053;53.358;6.382;2023-03-17T03:50:50;6.60;;;3.90;;
17854;SDS011;9053;53.358;6.382;2023-03-17T03:53:24;4.60;;;3.93;;
17854;SDS011;9053;53.358;6.382;2023-03-17T03:55:54;4.23;;;3.53;;
17854;SDS011;9053;53.358;6.382;2023-03-17T03:58:27;3.97;;;3.53;;
17854;SDS011;9053;53.358;6.382;2023-03-17T04:00:57;5.67;;;3.90;;
17854;SDS011;9053;53.358;6.382;2023-03-17T04:03:27;4.87;;;3.80;;
17854;SDS011;9053;53.358;6.382;2023-03-17T04:05:58;4.27;;;3.07;;
17854;SDS011;9053;53.358;6.382;2023-03-17T04:08:29;4.63;;;3.67;;
17854;SDS011;9053;53.358;6.382;2023-03-17T04:11:04;4.20;;;3.80;;
17854;SDS011;9053;53.358;6.382;2023-03-17T04:13:36;4.10;;;3.57;;
17854;SDS011;9053;53.358;6.382;2023-03-17T04:16:07;5.90;;;3.90;;
17854;SDS011;9053;53.358;6.382;2023-03-17T04:18:37;6.47;;;3.53;;
17854;SDS011;9053;53.358;6.382;2023-03-17T04:21:07;4.90;;;4.20;;
17854;SDS011;9053;53.358;6.382;2023-03-17T04:23:37;5.77;;;3.60;;
17854;SDS011;9053;53.358;6.382;2023-03-17T04:26:07;4.20;;;3.60;;
17854;SDS011;9053;53.358;6.382;2023-03-17T04:28:41;4.80;;;3.60;;
17854;SDS011;9053;53.358;6.382;2023-03-17T04:31:11;5.10;;;3.90;;
17854;SDS011;9053;53.358;6.382;2023-03-17T04:33:41;4.97;;;3.90;;
17854;SDS011;9053;53.358;6.382;2023-03-17T04:36:13;5.97;;;3.60;;
17854;SDS011;9053;53.358;6.382;2023-03-17T04:38:45;6.23;;;3.63;;
17854;SDS011;9053;53.358;6.382;2023-03-17T04:41:15;4.47;;;3.57;;
17854;SDS011;9053;53.358;6.382;2023-03-17T04:43:49;4.63;;;3.60;;
17854;SDS011;9053;53.358;6.382;2023-03-17T04:46:18;4.40;;;4.00;;
17854;SDS011;9053;53.358;6.382;2023-03-17T04:48:48;5.00;;;3.33;;
17854;SDS011;9053;53.358;6.382;2023-03-17T04:51:18;4.10;;;3.53;;
17854;SDS011;9053;53.358;6.382;2023-03-17T04:53:48;4.33;;;3.27;;
17854;SDS011;9053;53.358;6.382;2023-03-17T04:56:24;4.97;;;3.50;;
17854;SDS011;9053;53.358;6.382;2023-03-17T04:58:59;5.70;;;3.53;;
17854;SDS011;9053;53.358;6.382;2023-03-17T05:01:29;4.93;;;3.00;;
17854;SDS011;9053;53.358;6.382;2023-03-17T05:03:59;4.87;;;3.60;;
17854;SDS011;9053;53.358;6.382;2023-03-17T05:06:29;5.70;;;4.20;;
17854;SDS011;9053;53.358;6.382;2023-03-17T05:08:59;5.70;;;3.67;;
17854;SDS011;9053;53.358;6.382;2023-03-17T05:11:29;5.10;;;3.77;;
17854;SDS011;9053;53.358;6.382;2023-03-17T05:14:01;6.80;;;3.60;;
17854;SDS011;9053;53.358;6.382;2023-03-17T05:16:31;3.57;;;3.13;;
17854;SDS011;9053;53.358;6.382;2023-03-17T05:19:01;4.90;;;3.70;;
17854;SDS011;9053;53.358;6.382;2023-03-17T05:21:31;4.47;;;3.37;;
17854;SDS011;9053;53.358;6.382;2023-03-17T05:24:01;4.70;;;3.07;;
17854;SDS011;9053;53.358;6.382;2023-03-17T05:26:31;4.77;;;4.03;;
17854;SDS011;9053;53.358;6.382;2023-03-17T05:29:04;3.77;;;3.37;;
17854;SDS011;9053;53.358;6.382;2023-03-17T05:31:34;4.30;;;3.50;;
17854;SDS011;9053;53.358;6.382;2023-03-17T05:34:04;6.43;;;3.47;;
17854;SDS011;9053;53.358;6.382;2023-03-17T05:36:34;5.00;;;4.23;;
17854;SDS011;9053;53.358;6.382;2023-03-17T05:39:04;5.63;;;3.83;;
17854;SDS011;9053;53.358;6.382;2023-03-17T05:41:34;4.63;;;3.43;;
17854;SDS011;9053;53.358;6.382;2023-03-17T05:44:07;4.90;;;3.90;;
17854;SDS011;9053;53.358;6.382;2023-03-17T05:46:37;5.77;;;3.73;;
17854;SDS011;9053;53.358;6.382;2023-03-17T05:49:06;5.57;;;3.53;;
17854;SDS011;9053;53.358;6.382;2023-03-17T05:51:36;6.07;;;4.27;;
17854;SDS011;9053;53.358;6.382;2023-03-17T05:54:07;4.67;;;3.43;;
17854;SDS011;9053;53.358;6.382;2023-03-17T05:56:41;5.67;;;3.70;;
17854;SDS011;9053;53.358;6.382;2023-03-17T05:59:14;5.73;;;3.90;;
17854;SDS011;9053;53.358;6.382;2023-03-17T06:01:49;4.87;;;3.23;;
17854;SDS011;9053;53.358;6.382;2023-03-17T06:04:19;3.97;;;3.57;;
17854;SDS011;9053;53.358;6.382;2023-03-17T06:06:48;4.70;;;3.40;;
17854;SDS011;9053;53.358;6.382;2023-03-17T06:09:18;5.07;;;3.50;;
17854;SDS011;9053;53.358;6.382;2023-03-17T06:11:48;5.63;;;3.53;;
17854;SDS011;9053;53.358;6.382;2023-03-17T06:14:21;5.20;;;3.53;;
17854;SDS011;9053;53.358;6.382;2023-03-17T06:16:52;5.40;;;3.50;;
17854;SDS011;9053;53.358;6.382;2023-03-17T06:19:22;5.43;;;3.90;;
17854;SDS011;9053;53.358;6.382;2023-03-17T06:21:52;4.30;;;3.57;;
17854;SDS011;9053;53.358;6.382;2023-03-17T06:24:22;5.23;;;3.53;;
17854;SDS011;9053;53.358;6.382;2023-03-17T06:26:52;4.57;;;3.43;;
17854;SDS011;9053;53.358;6.382;2023-03-17T06:29:24;4.50;;;3.40;;
17854;SDS011;9053;53.358;6.382;2023-03-17T06:31:56;4.70;;;3.40;;
17854;SDS011;9053;53.358;6.382;2023-03-17T06:34:44;4.43;;;3.30;;
17854;SDS011;9053;53.358;6.382;2023-03-17T06:37:18;4.07;;;3.57;;
17854;SDS011;9053;53.358;6.382;2023-03-17T06:39:48;4.53;;;3.77;;
17854;SDS011;9053;53.358;6.382;2023-03-17T06:42:18;4.40;;;3.30;;
17854;SDS011;9053;53.358;6.382;2023-03-17T06:44:50;4.80;;;3.60;;
17854;SDS011;9053;53.358;6.382;2023-03-17T06:47:21;5.97;;;3.63;;
17854;SDS011;9053;53.358;6.382;2023-03-17T06:49:51;4.80;;;3.33;;
17854;SDS011;9053;53.358;6.382;2023-03-17T06:52:21;4.50;;;3.70;;
17854;SDS011;9053;53.358;6.382;2023-03-17T06:54:51;4.20;;;3.67;;
17854;SDS011;9053;53.358;6.382;2023-03-17T06:57:21;4.60;;;3.30;;
17854;SDS011;9053;53.358;6.382;2023-03-17T06:59:57;5.00;;;3.60;;
17854;SDS011;9053;53.358;6.382;2023-03-17T07:02:27;3.43;;;3.00;;
17854;SDS011;9053;53.358;6.382;2023-03-17T07:04:57;4.27;;;3.30;;
17854;SDS011;9053;53.358;6.382;2023-03-17T07:07:30;4.20;;;3.10;;
17854;SDS011;9053;53.358;6.382;2023-03-17T07:10:02;4.80;;;3.60;;
17854;SDS011;9053;53.358;6.382;2023-03-17T07:12:33;6.20;;;3.63;;
17854;SDS011;9053;53.358;6.382;2023-03-17T07:15:06;4.27;;;3.30;;
17854;SDS011;9053;53.358;6.382;2023-03-17T07:17:37;4.20;;;3.30;;
17854;SDS011;9053;53.358;6.382;2023-03-17T07:20:08;4.30;;;3.50;;
17854;SDS011;9053;53.358;6.382;2023-03-17T07:22:40;4.93;;;3.50;;
17854;SDS011;9053;53.358;6.382;2023-03-17T07:25:10;4.50;;;3.20;;
17854;SDS011;9053;53.358;6.382;2023-03-17T07:27:39;4.13;;;3.57;;
17854;SDS011;9053;53.358;6.382;2023-03-17T07:30:13;4.53;;;3.50;;
17854;SDS011;9053;53.358;6.382;2023-03-17T07:32:46;5.03;;;3.60;;
17854;SDS011;9053;53.358;6.382;2023-03-17T07:35:16;3.67;;;3.23;;
17854;SDS011;9053;53.358;6.382;2023-03-17T07:37:46;4.13;;;3.40;;
17854;SDS011;9053;53.358;6.382;2023-03-17T07:40:16;4.03;;;3.57;;
17854;SDS011;9053;53.358;6.382;2023-03-17T07:42:46;4.47;;;3.30;;
17854;SDS011;9053;53.358;6.382;2023-03-17T07:45:19;5.37;;;3.63;;
17854;SDS011;9053;53.358;6.382;2023-03-17T07:47:49;5.07;;;3.30;;
17854;SDS011;9053;53.358;6.382;2023-03-17T07:50:19;5.13;;;3.87;;
17854;SDS011;9053;53.358;6.382;2023-03-17T07:52:50;4.27;;;3.60;;
17854;SDS011;9053;53.358;6.382;2023-03-17T07:55:22;4.17;;;3.70;;
17854;SDS011;9053;53.358;6.382;2023-03-17T07:57:57;5.50;;;3.60;;
17854;SDS011;9053;53.358;6.382;2023-03-17T08:00:30;3.73;;;3.33;;
17854;SDS011;9053;53.358;6.382;2023-03-17T08:03:01;4.97;;;3.60;;
17854;SDS011;9053;53.358;6.382;2023-03-17T08:05:36;3.70;;;3.30;;
17854;SDS011;9053;53.358;6.382;2023-03-17T08:08:06;4.07;;;3.47;;
17854;SDS011;9053;53.358;6.382;2023-03-17T08:10:36;4.47;;;4.03;;
17854;SDS011;9053;53.358;6.382;2023-03-17T08:13:06;4.70;;;3.63;;
17854;SDS011;9053;53.358;6.382;2023-03-17T08:15:39;4.17;;;3.33;;
17854;SDS011;9053;53.358;6.382;2023-03-17T08:18:09;4.72;;;3.85;;
17854;SDS011;9053;53.358;6.382;2023-03-17T08:20:39;4.43;;;3.35;;
17854;SDS011;9053;53.358;6.382;2023-03-17T08:23:09;6.33;;;3.40;;
17854;SDS011;9053;53.358;6.382;2023-03-17T08:25:42;4.03;;;3.43;;
17854;SDS011;9053;53.358;6.382;2023-03-17T08:28:13;5.30;;;3.80;;
17854;SDS011;9053;53.358;6.382;2023-03-17T08:30:46;4.17;;;3.20;;
17854;SDS011;9053;53.358;6.382;2023-03-17T08:33:16;4.60;;;3.63;;
17854;SDS011;9053;53.358;6.382;2023-03-17T08:35:46;4.73;;;3.50;;
17854;SDS011;9053;53.358;6.382;2023-03-17T08:38:19;5.57;;;3.80;;
17854;SDS011;9053;53.358;6.382;2023-03-17T08:40:49;4.47;;;3.87;;
17854;SDS011;9053;53.358;6.382;2023-03-17T08:43:19;9.43;;;8.63;;
17854;SDS011;9053;53.358;6.382;2023-03-17T08:45:52;4.80;;;3.70;;
17854;SDS011;9053;53.358;6.382;2023-03-17T08:48:27;4.77;;;4.00;;
17854;SDS011;9053;53.358;6.382;2023-03-17T08:50:58;4.77;;;3.60;;
17854;SDS011;9053;53.358;6.382;2023-03-17T08:53:27;4.90;;;3.30;;
17854;SDS011;9053;53.358;6.382;2023-03-17T08:55:57;4.20;;;3.27;;
17854;SDS011;9053;53.358;6.382;2023-03-17T08:58:30;4.73;;;3.73;;
17854;SDS011;9053;53.358;6.382;2023-03-17T09:01:05;5.13;;;3.83;;
17854;SDS011;9053;53.358;6.382;2023-03-17T09:03:37;4.80;;;4.30;;
17854;SDS011;9053;53.358;6.382;2023-03-17T09:06:08;4.97;;;4.03;;
17854;SDS011;9053;53.358;6.382;2023-03-17T09:08:40;5.97;;;3.87;;
17854;SDS011;9053;53.358;6.382;2023-03-17T09:11:13;4.60;;;4.18;;
17854;SDS011;9053;53.358;6.382;2023-03-17T09:13:45;4.57;;;3.33;;
17854;SDS011;9053;53.358;6.382;2023-03-17T09:16:18;6.27;;;4.03;;
17854;SDS011;9053;53.358;6.382;2023-03-17T09:18:49;5.83;;;3.87;;
17854;SDS011;9053;53.358;6.382;2023-03-17T09:21:19;4.32;;;3.60;;
17854;SDS011;9053;53.358;6.382;2023-03-17T09:23:49;3.50;;;3.17;;
17854;SDS011;9053;53.358;6.382;2023-03-17T09:26:19;4.23;;;3.50;;
17854;SDS011;9053;53.358;6.382;2023-03-17T09:28:50;5.20;;;3.80;;
17854;SDS011;9053;53.358;6.382;2023-03-17T09:31:23;4.82;;;3.70;;
17854;SDS011;9053;53.358;6.382;2023-03-17T09:33:53;6.32;;;3.85;;
17854;SDS011;9053;53.358;6.382;2023-03-17T09:36:23;4.60;;;3.70;;
17854;SDS011;9053;53.358;6.382;2023-03-17T09:38:53;4.20;;;3.60;;
17854;SDS011;9053;53.358;6.382;2023-03-17T09:41:34;5.73;;;3.70;;
17854;SDS011;9053;53.358;6.382;2023-03-17T09:44:19;6.30;;;4.10;;
17854;SDS011;9053;53.358;6.382;2023-03-17T09:47:07;5.50;;;3.92;;
17854;SDS011;9053;53.358;6.382;2023-03-17T09:49:47;4.82;;;3.50;;
17854;SDS011;9053;53.358;6.382;2023-03-17T09:52:21;5.63;;;3.83;;
17854;SDS011;9053;53.358;6.382;2023-03-17T09:54:56;5.45;;;3.33;;
17854;SDS011;9053;53.358;6.382;2023-03-17T09:57:29;4.03;;;3.60;;
17854;SDS011;9053;53.358;6.382;2023-03-17T10:00:04;4.97;;;3.78;;
17854;SDS011;9053;53.358;6.382;2023-03-17T10:02:42;4.35;;;3.90;;
17854;SDS011;9053;53.358;6.382;2023-03-17T10:05:17;5.10;;;3.75;;
17854;SDS011;9053;53.358;6.382;2023-03-17T10:07:50;5.55;;;4.25;;
17854;SDS011;9053;53.358;6.382;2023-03-17T10:10:28;5.65;;;4.05;;
17854;SDS011;9053;53.358;6.382;2023-03-17T10:13:07;9.80;;;4.05;;
17854;SDS011;9053;53.358;6.382;2023-03-17T10:15:46;5.90;;;4.07;;
17854;SDS011;9053;53.358;6.382;2023-03-17T10:18:25;5.38;;;4.35;;
17854;SDS011;9053;53.358;6.382;2023-03-17T10:20:58;4.85;;;4.03;;
17854;SDS011;9053;53.358;6.382;2023-03-17T10:23:30;4.80;;;3.92;;
17854;SDS011;9053;53.358;6.382;2023-03-17T10:26:10;6.60;;;4.63;;
17854;SDS011;9053;53.358;6.382;2023-03-17T10:28:49;6.43;;;4.03;;
17854;SDS011;9053;53.358;6.382;2023-03-17T10:31:20;4.20;;;3.80;;
17854;SDS011;9053;53.358;6.382;2023-03-17T10:34:03;5.20;;;3.92;;
17854;SDS011;9053;53.358;6.382;2023-03-17T10:36:43;5.97;;;4.13;;
17854;SDS011;9053;53.358;6.382;2023-03-17T10:39:17;4.85;;;4.00;;
17854;SDS011;9053;53.358;6.382;2023-03-17T10:41:56;5.63;;;4.20;;
17854;SDS011;9053;53.358;6.382;2023-03-17T10:44:29;5.57;;;4.57;;
17854;SDS011;9053;53.358;6.382;2023-03-17T10:47:18;4.57;;;4.15;;
17854;SDS011;9053;53.358;6.382;2023-03-17T10:50:01;5.72;;;3.70;;
17854;SDS011;9053;53.358;6.382;2023-03-17T10:52:35;4.95;;;3.90;;
17854;SDS011;9053;53.358;6.382;2023-03-17T10:55:08;5.72;;;4.30;;
17854;SDS011;9053;53.358;6.382;2023-03-17T10:57:49;6.82;;;4.53;;
17854;SDS011;9053;53.358;6.382;2023-03-17T11:00:22;5.10;;;4.35;;
17854;SDS011;9053;53.358;6.382;2023-03-17T11:02:55;7.13;;;4.75;;
17854;SDS011;9053;53.358;6.382;2023-03-17T11:05:29;6.68;;;4.18;;
17854;SDS011;9053;53.358;6.382;2023-03-17T11:08:05;5.13;;;4.22;;
17854;SDS011;9053;53.358;6.382;2023-03-17T11:10:38;5.70;;;4.93;;
17854;SDS011;9053;53.358;6.382;2023-03-17T11:13:14;6.80;;;4.82;;
17854;SDS011;9053;53.358;6.382;2023-03-17T11:15:45;6.45;;;4.47;;
17854;SDS011;9053;53.358;6.382;2023-03-17T11:18:22;5.50;;;4.57;;
17854;SDS011;9053;53.358;6.382;2023-03-17T11:21:01;4.97;;;4.40;;
17854;SDS011;9053;53.358;6.382;2023-03-17T11:23:42;6.13;;;4.85;;
17854;SDS011;9053;53.358;6.382;2023-03-17T11:32:31;10.20;;;5.30;;
17854;SDS011;9053;53.358;6.382;2023-03-17T11:35:10;7.38;;;5.28;;
17854;SDS011;9053;53.358;6.382;2023-03-17T11:37:58;8.70;;;5.53;;
17854;SDS011;9053;53.358;6.382;2023-03-17T11:40:38;7.63;;;5.30;;
17854;SDS011;9053;53.358;6.382;2023-03-17T11:43:25;9.23;;;5.60;;
17854;SDS011;9053;53.358;6.382;2023-03-17T11:46:02;8.02;;;5.63;;
17854;SDS011;9053;53.358;6.382;2023-03-17T11:48:37;8.18;;;5.68;;
17854;SDS011;9053;53.358;6.382;2023-03-17T11:51:18;8.73;;;5.75;;
17854;SDS011;9053;53.358;6.382;2023-03-17T11:53:57;6.28;;;5.38;;
17854;SDS011;9053;53.358;6.382;2023-03-17T11:56:40;8.43;;;5.82;;
17854;SDS011;9053;53.358;6.382;2023-03-17T11:59:17;7.35;;;5.68;;
17854;SDS011;9053;53.358;6.382;2023-03-17T12:01:55;7.95;;;6.15;;
17854;SDS011;9053;53.358;6.382;2023-03-17T12:04:33;6.85;;;5.60;;
17854;SDS011;9053;53.358;6.382;2023-03-17T12:07:06;7.72;;;6.25;;
17854;SDS011;9053;53.358;6.382;2023-03-17T12:09:49;9.38;;;5.85;;
17854;SDS011;9053;53.358;6.382;2023-03-17T12:12:30;8.50;;;5.80;;
17854;SDS011;9053;53.358;6.382;2023-03-17T12:15:08;8.63;;;5.68;;
17854;SDS011;9053;53.358;6.382;2023-03-17T12:17:46;9.15;;;6.30;;
17854;SDS011;9053;53.358;6.382;2023-03-17T12:20:22;9.38;;;6.60;;
17854;SDS011;9053;53.358;6.382;2023-03-17T12:23:00;9.13;;;6.40;;
17854;SDS011;9053;53.358;6.382;2023-03-17T12:25:39;7.97;;;5.93;;
17854;SDS011;9053;53.358;6.382;2023-03-17T12:28:17;8.90;;;6.63;;
17854;SDS011;9053;53.358;6.382;2023-03-17T12:30:53;8.63;;;6.93;;
17854;SDS011;9053;53.358;6.382;2023-03-17T12:33:32;9.23;;;6.78;;
17854;SDS011;9053;53.358;6.382;2023-03-17T12:36:07;9.98;;;7.18;;
17854;SDS011;9053;53.358;6.382;2023-03-17T12:38:43;9.23;;;6.43;;
17854;SDS011;9053;53.358;6.382;2023-03-17T12:41:34;10.07;;;6.47;;
17854;SDS011;9053;53.358;6.382;2023-03-17T12:44:17;7.13;;;5.75;;
17854;SDS011;9053;53.358;6.382;2023-03-17T12:47:22;8.68;;;5.82;;
17854;SDS011;9053;53.358;6.382;2023-03-17T12:53:22;6.35;;;5.20;;
17854;SDS011;9053;53.358;6.382;2023-03-17T12:55:56;8.05;;;5.90;;
17854;SDS011;9053;53.358;6.382;2023-03-17T12:58:33;7.45;;;6.13;;
17854;SDS011;9053;53.358;6.382;2023-03-17T13:01:07;8.23;;;6.10;;
17854;SDS011;9053;53.358;6.382;2023-03-17T13:04:00;8.45;;;6.05;;
17854;SDS011;9053;53.358;6.382;2023-03-17T13:06:37;9.07;;;6.93;;
17854;SDS011;9053;53.358;6.382;2023-03-17T13:12:02;8.70;;;6.53;;
17854;SDS011;9053;53.358;6.382;2023-03-17T13:14:41;7.63;;;6.45;;
17854;SDS011;9053;53.358;6.382;2023-03-17T13:17:29;8.40;;;6.78;;
17854;SDS011;9053;53.358;6.382;2023-03-17T13:20:11;10.60;;;6.65;;
17854;SDS011;9053;53.358;6.382;2023-03-17T13:25:32;7.00;;;5.85;;
17854;SDS011;9053;53.358;6.382;2023-03-17T13:28:21;8.63;;;6.30;;
17854;SDS011;9053;53.358;6.382;2023-03-17T13:30:58;8.43;;;6.75;;
17854;SDS011;9053;53.358;6.382;2023-03-17T13:33:42;8.55;;;6.38;;
17854;SDS011;9053;53.358;6.382;2023-03-17T13:39:21;8.50;;;6.13;;
17854;SDS011;9053;53.358;6.382;2023-03-17T13:42:13;7.07;;;5.97;;
17854;SDS011;9053;53.358;6.382;2023-03-17T13:47:49;6.60;;;4.97;;
17854;SDS011;9053;53.358;6.382;2023-03-17T13:50:21;7.80;;;5.57;;
17854;SDS011;9053;53.358;6.382;2023-03-17T13:52:55;6.18;;;5.05;;
17854;SDS011;9053;53.358;6.382;2023-03-17T13:55:34;8.02;;;5.88;;
17854;SDS011;9053;53.358;6.382;2023-03-17T13:58:30;7.13;;;5.82;;
17854;SDS011;9053;53.358;6.382;2023-03-17T14:01:03;10.98;;;6.05;;
17854;SDS011;9053;53.358;6.382;2023-03-17T14:03:41;7.43;;;5.28;;
17854;SDS011;9053;53.358;6.382;2023-03-17T14:06:16;7.68;;;5.40;;
17854;SDS011;9053;53.358;6.382;2023-03-17T14:08:48;10.60;;;6.00;;
17854;SDS011;9053;53.358;6.382;2023-03-17T14:11:26;6.57;;;5.15;;
17854;SDS011;9053;53.358;6.382;2023-03-17T14:14:03;7.70;;;5.90;;
17854;SDS011;9053;53.358;6.382;2023-03-17T14:16:58;7.03;;;5.05;;
17854;SDS011;9053;53.358;6.382;2023-03-17T14:19:37;9.25;;;6.53;;
17854;SDS011;9053;53.358;6.382;2023-03-17T14:22:19;9.30;;;6.80;;
17854;SDS011;9053;53.358;6.382;2023-03-17T14:24:54;7.72;;;5.90;;
17854;SDS011;9053;53.358;6.382;2023-03-17T14:27:28;8.82;;;6.38;;
17854;SDS011;9053;53.358;6.382;2023-03-17T14:30:04;6.18;;;5.57;;
17854;SDS011;9053;53.358;6.382;2023-03-17T14:32:37;6.32;;;5.70;;
17854;SDS011;9053;53.358;6.382;2023-03-17T14:35:13;7.43;;;6.10;;
17854;SDS011;9053;53.358;6.382;2023-03-17T14:37:43;8.40;;;6.75;;
17854;SDS011;9053;53.358;6.382;2023-03-17T14:40:17;8.23;;;6.95;;
17854;SDS011;9053;53.358;6.382;2023-03-17T14:42:50;10.05;;;7.35;;
17854;SDS011;9053;53.358;6.382;2023-03-17T14:45:21;8.55;;;6.78;;
17854;SDS011;9053;53.358;6.382;2023-03-17T14:48:07;7.43;;;6.05;;
17854;SDS011;9053;53.358;6.382;2023-03-17T14:50:45;9.43;;;7.05;;
17854;SDS011;9053;53.358;6.382;2023-03-17T14:53:20;10.73;;;7.20;;
17854;SDS011;9053;53.358;6.382;2023-03-17T14:55:51;7.10;;;5.88;;
17854;SDS011;9053;53.358;6.382;2023-03-17T14:58:23;8.50;;;6.18;;
17854;SDS011;9053;53.358;6.382;2023-03-17T15:01:01;6.55;;;5.80;;
17854;SDS011;9053;53.358;6.382;2023-03-17T15:03:36;7.68;;;6.47;;
17854;SDS011;9053;53.358;6.382;2023-03-17T15:06:23;6.80;;;6.07;;
17854;SDS011;9053;53.358;6.382;2023-03-17T15:08:56;7.75;;;5.47;;
17854;SDS011;9053;53.358;6.382;2023-03-17T15:11:35;8.82;;;6.53;;
17854;SDS011;9053;53.358;6.382;2023-03-17T15:14:12;7.57;;;6.72;;
17854;SDS011;9053;53.358;6.382;2023-03-17T15:16:47;6.97;;;5.60;;
17854;SDS011;9053;53.358;6.382;2023-03-17T15:19:20;8.32;;;5.93;;
17854;SDS011;9053;53.358;6.382;2023-03-17T15:21:56;5.82;;;4.88;;
17854;SDS011;9053;53.358;6.382;2023-03-17T15:24:35;8.98;;;5.60;;
17854;SDS011;9053;53.358;6.382;2023-03-17T15:27:12;6.97;;;5.53;;
17854;SDS011;9053;53.358;6.382;2023-03-17T15:29:43;6.60;;;5.35;;
17854;SDS011;9053;53.358;6.382;2023-03-17T15:32:17;5.60;;;5.10;;
17854;SDS011;9053;53.358;6.382;2023-03-17T15:34:48;6.28;;;5.65;;
17854;SDS011;9053;53.358;6.382;2023-03-17T15:37:22;6.82;;;5.50;;
17854;SDS011;9053;53.358;6.382;2023-03-17T15:39:54;8.50;;;6.07;;
17854;SDS011;9053;53.358;6.382;2023-03-17T15:42:27;8.55;;;6.13;;
17854;SDS011;9053;53.358;6.382;2023-03-17T15:44:58;7.72;;;6.10;;
17854;SDS011;9053;53.358;6.382;2023-03-17T15:47:30;10.57;;;6.50;;
17854;SDS011;9053;53.358;6.382;2023-03-17T15:50:09;9.00;;;6.32;;
17854;SDS011;9053;53.358;6.382;2023-03-17T15:52:45;7.30;;;5.80;;
17854;SDS011;9053;53.358;6.382;2023-03-17T15:55:20;6.88;;;5.82;;
17854;SDS011;9053;53.358;6.382;2023-03-17T15:57:52;6.90;;;5.43;;
17854;SDS011;9053;53.358;6.382;2023-03-17T16:00:24;6.18;;;5.57;;
17854;SDS011;9053;53.358;6.382;2023-03-17T16:02:57;7.05;;;6.07;;
17854;SDS011;9053;53.358;6.382;2023-03-17T16:05:30;6.63;;;5.28;;
17854;SDS011;9053;53.358;6.382;2023-03-17T16:08:04;6.38;;;5.25;;